createdAt,value
2023-10-02T00:02:06.780Z,3.42
2023-10-02T00:07:30.790Z,2.83
2023-10-02T00:12:59.561Z,3.10
2023-10-02T00:18:20.665Z,2.58
2023-10-02T00:24:00.696Z,2.60
2023-10-02T00:29:24.406Z,4.25
2023-10-02T00:34:45.012Z,2.40
2023-10-02T00:40:08.179Z,2.78
2023-10-02T00:45:39.929Z,2.95
2023-10-02T00:51:07.184Z,3.33
2023-10-02T00:56:30.273Z,3.05
2023-10-02T01:01:51.261Z,3.33
2023-10-02T01:07:13.177Z,3.00
2023-10-02T01:12:44.436Z,3.38
2023-10-02T01:18:24.231Z,3.72
2023-10-02T01:24:08.333Z,3.10
2023-10-02T01:29:30.933Z,3.10
2023-10-02T01:34:52.575Z,2.42
2023-10-02T01:40:34.721Z,2.70
2023-10-02T01:45:58.472Z,2.92
2023-10-02T01:51:27.458Z,3.20
2023-10-02T01:56:49.946Z,2.85
2023-10-02T02:02:14.266Z,3.30
2023-10-02T02:07:36.538Z,2.88
2023-10-02T02:12:56.965Z,2.85
2023-10-02T02:18:20.675Z,2.88
2023-10-02T02:23:41.262Z,3.00
2023-10-02T02:29:04.298Z,3.35
2023-10-02T02:34:27.786Z,2.65
2023-10-02T02:39:50.980Z,3.25
2023-10-02T02:45:26.042Z,2.78
2023-10-02T02:50:47.142Z,2.55
2023-10-02T02:56:24.849Z,2.85
2023-10-02T03:01:46.840Z,2.95
2023-10-02T03:07:18.934Z,2.88
2023-10-02T03:12:46.229Z,2.85
2023-10-02T03:18:24.014Z,3.15
2023-10-02T03:23:44.966Z,3.22
2023-10-02T03:29:13.718Z,3.78
2023-10-02T03:34:35.893Z,3.33
2023-10-02T03:39:59.542Z,2.97
2023-10-02T03:45:39.736Z,3.53
2023-10-02T03:51:07.954Z,3.85
2023-10-02T03:56:43.858Z,4.78
2023-10-02T04:02:23.993Z,5.50
2023-10-02T04:07:48.505Z,5.50
2023-10-02T04:18:50.618Z,7.85
2023-10-02T04:24:11.459Z,9.57
2023-10-02T04:29:38.392Z,8.35
2023-10-02T04:34:59.511Z,8.57
2023-10-02T04:40:24.292Z,8.43
2023-10-02T04:45:45.520Z,10.52
2023-10-02T04:51:10.849Z,8.02
2023-10-02T04:56:31.794Z,9.25
2023-10-02T05:02:12.400Z,7.38
2023-10-02T05:07:33.082Z,9.25
2023-10-02T05:12:54.506Z,9.45
2023-10-02T05:18:18.120Z,9.13
2023-10-02T05:23:39.416Z,9.90
2023-10-02T05:29:09.759Z,8.93
2023-10-02T05:34:31.123Z,9.23
2023-10-02T05:39:51.847Z,8.63
2023-10-02T05:45:14.820Z,8.10
2023-10-02T05:50:41.905Z,9.27
2023-10-02T05:56:11.387Z,9.45
2023-10-02T06:01:35.732Z,8.88
2023-10-02T06:07:02.549Z,10.50
2023-10-02T06:12:25.436Z,10.48
2023-10-02T06:17:47.053Z,10.13
2023-10-02T06:23:21.182Z,9.93
2023-10-02T06:28:43.047Z,8.38
2023-10-02T06:34:06.567Z,10.85
2023-10-02T06:39:28.036Z,11.77
2023-10-02T06:44:54.674Z,11.45
2023-10-02T06:50:28.644Z,11.27
2023-10-02T06:55:59.979Z,11.60
2023-10-02T07:01:21.701Z,9.48
2023-10-02T07:06:42.031Z,11.80
2023-10-02T07:12:29.852Z,10.88
2023-10-02T07:17:51.448Z,12.40
2023-10-02T07:23:20.396Z,12.13
2023-10-02T07:28:51.578Z,11.98
2023-10-02T07:34:17.165Z,10.48
2023-10-02T07:39:39.325Z,10.25
2023-10-02T07:45:13.902Z,10.73
2023-10-02T07:50:36.317Z,10.80
2023-10-02T07:55:56.865Z,12.02
2023-10-02T08:01:17.900Z,11.80
2023-10-02T08:06:41.121Z,11.13
2023-10-02T08:12:30.267Z,11.23
2023-10-02T08:17:50.674Z,10.35
2023-10-02T08:23:25.150Z,12.90
2023-10-02T08:28:47.113Z,11.20
2023-10-02T08:34:15.211Z,13.43
2023-10-02T08:39:40.197Z,12.32
2023-10-02T08:45:02.232Z,13.38
2023-10-02T08:50:23.206Z,12.40
2023-10-02T08:55:46.608Z,11.63
2023-10-02T09:01:10.494Z,13.35
2023-10-02T09:06:37.968Z,11.73
2023-10-02T09:11:58.642Z,12.20
2023-10-02T09:17:23.010Z,13.43
2023-10-02T09:23:09.261Z,9.30
2023-10-02T09:28:43.389Z,10.50
2023-10-02T09:34:56.914Z,10.63
2023-10-02T09:39:58.203Z,9.02
2023-10-02T09:45:32.370Z,8.90
2023-10-02T09:50:55.318Z,8.48
2023-10-02T09:56:18.975Z,8.90
2023-10-02T10:01:39.678Z,10.52
2023-10-02T10:07:08.116Z,8.73
2023-10-02T10:12:55.957Z,9.50
2023-10-02T10:18:18.433Z,9.27
2023-10-02T10:23:39.302Z,9.38
2023-10-02T10:29:00.047Z,9.75
2023-10-02T10:35:21.382Z,9.30
2023-10-02T10:40:45.712Z,9.65
2023-10-02T10:46:13.564Z,8.52
2023-10-02T10:51:41.053Z,8.55
2023-10-02T10:57:23.970Z,8.95
2023-10-02T11:02:44.949Z,8.63
2023-10-02T11:08:25.157Z,9.60
2023-10-02T11:13:54.345Z,9.45
2023-10-02T11:19:20.760Z,8.93
2023-10-02T11:25:19.668Z,8.10
2023-10-02T11:30:43.540Z,9.73
2023-10-02T11:36:12.474Z,8.98
2023-10-02T11:41:37.676Z,10.18
2023-10-02T11:47:00.635Z,9.15
2023-10-02T11:52:21.191Z,9.27
2023-10-02T11:57:41.588Z,8.20
2023-10-02T12:03:02.253Z,7.78
2023-10-02T12:08:23.473Z,6.80
2023-10-02T12:13:45.872Z,8.13
2023-10-02T12:19:09.921Z,8.18
2023-10-02T12:24:30.860Z,7.95
2023-10-02T12:29:51.982Z,6.15
2023-10-02T12:35:17.835Z,6.57
2023-10-02T12:40:38.650Z,7.20
2023-10-02T12:46:02.344Z,7.82
2023-10-02T12:51:24.071Z,5.93
2023-10-02T12:56:46.801Z,7.18
2023-10-02T13:02:09.031Z,7.75
2023-10-02T13:07:29.513Z,6.78
2023-10-02T13:12:50.502Z,4.00
2023-10-02T13:18:11.401Z,5.03
2023-10-02T13:23:32.555Z,5.00
2023-10-02T13:28:55.313Z,5.43
2023-10-02T13:34:16.203Z,5.40
2023-10-02T13:39:40.134Z,5.00
2023-10-02T13:45:01.883Z,5.03
2023-10-02T13:50:23.427Z,4.78
2023-10-02T13:55:43.869Z,4.90
2023-10-02T14:01:06.597Z,4.82
2023-10-02T14:06:29.838Z,4.97
2023-10-02T14:11:52.112Z,4.45
2023-10-02T14:17:13.134Z,5.43
2023-10-02T14:22:38.308Z,4.38
2023-10-02T14:27:59.832Z,4.45
2023-10-02T14:33:21.564Z,4.40
2023-10-02T14:38:41.986Z,4.53
2023-10-02T14:44:05.194Z,4.05
2023-10-02T14:49:25.906Z,4.30
2023-10-02T14:54:47.117Z,2.83
2023-10-02T15:00:10.697Z,3.97
2023-10-02T15:05:32.064Z,4.03
2023-10-02T15:10:54.433Z,4.20
2023-10-02T15:16:16.480Z,5.90
2023-10-02T15:21:38.173Z,4.50
2023-10-02T15:26:59.577Z,4.55
2023-10-02T15:32:22.048Z,4.25
2023-10-02T15:37:45.086Z,4.82
2023-10-02T15:43:05.979Z,4.38
2023-10-02T15:48:26.655Z,3.47
2023-10-02T15:53:46.942Z,4.57
2023-10-02T15:59:07.690Z,3.88
2023-10-02T16:04:28.112Z,3.10
2023-10-02T16:09:48.840Z,3.47
2023-10-02T16:15:13.165Z,3.92
2023-10-02T16:25:54.962Z,3.40
2023-10-02T16:31:18.101Z,3.38
2023-10-02T16:36:38.457Z,2.97
2023-10-02T16:41:59.074Z,3.67
2023-10-02T16:47:20.801Z,4.20
2023-10-02T16:52:45.563Z,3.70
2023-10-02T16:58:08.203Z,3.70
2023-10-02T17:03:29.270Z,3.58
2023-10-02T17:08:49.895Z,3.05
2023-10-02T17:14:11.834Z,3.45
2023-10-02T17:19:32.325Z,3.30
2023-10-02T17:24:53.254Z,3.00
2023-10-02T17:30:15.525Z,2.88
2023-10-02T17:35:37.393Z,3.30
2023-10-02T17:40:58.078Z,4.07
2023-10-02T17:46:19.092Z,4.30
2023-10-02T17:51:40.851Z,3.75
2023-10-02T17:57:03.959Z,3.92
2023-10-02T18:02:24.692Z,3.40
2023-10-02T18:07:46.293Z,3.38
2023-10-02T18:13:08.247Z,3.53
2023-10-02T18:18:28.988Z,3.70
2023-10-02T18:23:49.542Z,4.55
2023-10-02T18:29:12.990Z,4.22
2023-10-02T18:34:43.712Z,3.17
2023-10-02T18:40:09.842Z,3.45
2023-10-02T18:45:33.884Z,3.65
2023-10-02T18:50:54.378Z,3.63
2023-10-02T18:56:14.915Z,3.90
2023-10-02T19:01:36.755Z,4.95
2023-10-02T19:06:57.194Z,4.85
2023-10-02T19:12:17.748Z,4.22
2023-10-02T19:17:38.845Z,3.65
2023-10-02T19:22:59.967Z,4.43
2023-10-02T19:28:20.566Z,3.90
2023-10-02T19:33:41.459Z,3.88
2023-10-02T19:39:05.659Z,3.75
2023-10-02T19:49:46.996Z,4.18
2023-10-02T19:55:08.554Z,4.10
2023-10-02T20:00:29.753Z,3.95
2023-10-02T20:05:50.647Z,4.50
2023-10-02T20:11:12.383Z,3.85
2023-10-02T20:16:44.502Z,3.63
2023-10-02T20:22:06.184Z,3.58
2023-10-02T20:27:26.868Z,3.33
2023-10-02T20:32:48.640Z,3.70
2023-10-02T20:38:11.191Z,3.20
2023-10-02T20:43:32.672Z,3.85
2023-10-02T20:48:53.349Z,8.10
2023-10-02T20:54:16.744Z,6.82
2023-10-02T20:59:38.115Z,4.27
2023-10-02T21:04:59.256Z,5.95
2023-10-02T21:10:20.641Z,6.03
2023-10-02T21:15:45.575Z,7.20
2023-10-02T21:21:05.955Z,8.15
2023-10-02T21:26:28.788Z,7.80
2023-10-02T21:31:50.623Z,8.55
2023-10-02T21:37:11.139Z,10.35
2023-10-02T21:42:32.403Z,9.48
2023-10-02T21:47:54.034Z,9.30
2023-10-02T21:53:14.842Z,9.98
2023-10-02T21:58:35.797Z,9.60
2023-10-02T22:03:57.160Z,10.95
2023-10-02T22:09:18.836Z,10.88
2023-10-02T22:14:40.673Z,10.07
2023-10-02T22:20:02.857Z,10.10
2023-10-02T22:25:23.282Z,11.00
2023-10-02T22:30:44.250Z,10.18
2023-10-02T22:36:07.992Z,10.20
2023-10-02T22:41:30.841Z,10.50
2023-10-02T22:46:53.925Z,10.60
2023-10-02T22:52:15.294Z,9.35
2023-10-02T22:57:40.093Z,9.85
2023-10-02T23:03:00.606Z,10.13
2023-10-02T23:08:23.177Z,10.32
2023-10-02T23:13:43.734Z,11.15
2023-10-02T23:19:05.793Z,9.73
2023-10-02T23:24:26.675Z,9.93
2023-10-02T23:29:48.589Z,10.98
2023-10-02T23:35:09.542Z,10.82
2023-10-02T23:40:30.236Z,11.25
2023-10-02T23:45:52.414Z,11.55
2023-10-02T23:51:15.689Z,13.43
2023-10-02T23:56:36.060Z,15.95
